createdAt,value
2019-03-26T00:01:47.199Z,4.30
2019-03-26T00:04:18.441Z,4.13
2019-03-26T00:06:51.166Z,4.07
2019-03-26T00:09:24.075Z,4.00
2019-03-26T00:11:54.978Z,4.33
2019-03-26T00:14:27.458Z,4.90
2019-03-26T00:16:58.366Z,4.20
2019-03-26T00:19:31.103Z,4.37
2019-03-26T00:22:03.459Z,4.30
2019-03-26T00:24:35.707Z,4.20
2019-03-26T00:27:08.037Z,3.87
2019-03-26T00:29:40.735Z,4.20
2019-03-26T00:32:11.950Z,4.77
2019-03-26T00:34:43.504Z,4.87
2019-03-26T00:37:15.350Z,4.73
2019-03-26T00:39:46.918Z,4.77
2019-03-26T00:42:18.917Z,5.20
2019-03-26T00:44:50.123Z,4.77
2019-03-26T00:47:21.050Z,4.60
2019-03-26T00:49:52.319Z,4.70
2019-03-26T00:52:24.640Z,4.63
2019-03-26T00:54:55.591Z,5.10
2019-03-26T00:57:26.493Z,4.70
2019-03-26T00:59:57.674Z,4.90
2019-03-26T01:02:30.088Z,5.00
2019-03-26T01:05:01.333Z,4.93
2019-03-26T01:07:32.232Z,4.83
2019-03-26T01:10:04.921Z,5.07
2019-03-26T01:12:38.713Z,4.93
2019-03-26T01:15:10.306Z,4.07
2019-03-26T01:17:44.069Z,4.63
2019-03-26T01:20:14.968Z,4.30
2019-03-26T01:22:48.882Z,4.20
2019-03-26T01:25:19.684Z,4.23
2019-03-26T01:27:50.883Z,4.10
2019-03-26T01:30:23.844Z,4.33
2019-03-26T01:32:55.154Z,4.33
2019-03-26T01:35:26.109Z,4.73
2019-03-26T01:37:59.094Z,3.70
2019-03-26T01:40:30.362Z,4.03
2019-03-26T01:43:01.612Z,4.03
2019-03-26T01:45:32.497Z,4.17
2019-03-26T01:48:04.420Z,3.93
2019-03-26T01:50:36.790Z,4.00
2019-03-26T01:53:08.026Z,3.83
2019-03-26T01:55:38.914Z,3.50
2019-03-26T01:58:11.209Z,4.20
2019-03-26T02:00:42.531Z,4.07
2019-03-26T02:03:15.470Z,3.73
2019-03-26T02:05:46.834Z,4.10
2019-03-26T02:08:18.099Z,5.30
2019-03-26T02:10:49.386Z,4.20
2019-03-26T02:13:20.289Z,4.50
2019-03-26T02:15:51.119Z,4.10
2019-03-26T02:18:22.010Z,3.77
2019-03-26T02:20:53.272Z,4.20
2019-03-26T02:23:25.397Z,4.17
2019-03-26T02:25:56.259Z,4.70
2019-03-26T02:28:27.265Z,4.13
2019-03-26T02:30:58.470Z,4.20
2019-03-26T02:33:29.761Z,3.73
2019-03-26T02:36:02.775Z,4.63
2019-03-26T02:38:35.818Z,4.40
2019-03-26T02:41:08.021Z,4.40
2019-03-26T02:43:39.628Z,4.13
2019-03-26T02:46:13.450Z,4.10
2019-03-26T02:48:46.544Z,5.13
2019-03-26T02:51:19.616Z,4.80
2019-03-26T02:53:51.672Z,4.50
2019-03-26T02:56:22.538Z,4.63
2019-03-26T02:58:54.411Z,4.60
2019-03-26T03:01:26.551Z,4.27
2019-03-26T03:03:57.833Z,5.00
2019-03-26T03:06:29.052Z,4.43
2019-03-26T03:09:00.317Z,5.10
2019-03-26T03:11:34.663Z,4.57
2019-03-26T03:14:07.385Z,4.47
2019-03-26T03:16:38.625Z,4.80
2019-03-26T03:19:09.895Z,4.00
2019-03-26T03:21:40.878Z,4.43
2019-03-26T03:24:12.098Z,4.97
2019-03-26T03:26:44.062Z,5.27
2019-03-26T03:29:16.762Z,5.40
2019-03-26T03:31:47.670Z,5.17
2019-03-26T03:34:18.574Z,5.20
2019-03-26T03:36:49.877Z,5.03
2019-03-26T03:39:20.861Z,4.73
2019-03-26T03:41:52.112Z,5.53
2019-03-26T03:44:24.298Z,5.37
2019-03-26T03:46:56.979Z,4.87
2019-03-26T03:49:30.979Z,5.23
2019-03-26T03:52:03.787Z,5.50
2019-03-26T03:54:37.330Z,5.13
2019-03-26T03:57:09.673Z,5.47
2019-03-26T03:59:41.505Z,5.23
2019-03-26T04:02:12.406Z,5.47
2019-03-26T04:04:43.685Z,6.40
2019-03-26T04:07:14.513Z,5.87
2019-03-26T04:09:46.407Z,5.83
2019-03-26T04:12:19.621Z,5.17
2019-03-26T04:14:50.823Z,6.60
2019-03-26T04:17:21.733Z,6.13
2019-03-26T04:19:52.682Z,6.50
2019-03-26T04:22:24.973Z,6.03
2019-03-26T04:24:57.957Z,5.53
2019-03-26T04:27:28.823Z,5.37
2019-03-26T04:30:00.043Z,5.43
2019-03-26T04:32:32.732Z,5.67
2019-03-26T04:35:04.377Z,5.57
2019-03-26T04:37:35.294Z,5.77
2019-03-26T04:40:06.503Z,5.60
2019-03-26T04:42:37.822Z,6.50
2019-03-26T04:45:09.849Z,5.93
2019-03-26T04:47:41.437Z,5.90
2019-03-26T04:50:12.702Z,6.03
2019-03-26T04:52:44.650Z,6.83
2019-03-26T04:55:15.571Z,6.50
2019-03-26T04:57:50.767Z,5.87
2019-03-26T05:00:22.186Z,6.67
2019-03-26T05:02:54.956Z,5.93
2019-03-26T05:05:26.149Z,5.87
2019-03-26T05:07:57.973Z,5.67
2019-03-26T05:10:29.176Z,5.83
2019-03-26T05:13:01.505Z,6.23
2019-03-26T05:15:35.390Z,7.07
2019-03-26T05:18:06.543Z,6.83
2019-03-26T05:20:37.779Z,6.90
2019-03-26T05:23:09.379Z,8.60
2019-03-26T05:25:41.789Z,7.93
2019-03-26T05:28:14.919Z,7.43
2019-03-26T05:30:46.152Z,7.67
2019-03-26T05:33:20.796Z,7.80
2019-03-26T05:35:52.916Z,7.50
2019-03-26T05:38:24.119Z,7.33
2019-03-26T05:40:56.852Z,6.77
2019-03-26T05:43:27.886Z,6.20
2019-03-26T05:45:59.057Z,6.57
2019-03-26T05:48:29.957Z,6.43
2019-03-26T05:51:01.272Z,6.57
2019-03-26T05:53:34.108Z,6.20
2019-03-26T05:56:05.174Z,6.60
2019-03-26T05:58:36.384Z,7.23
2019-03-26T06:01:08.186Z,6.33
2019-03-26T06:03:40.498Z,6.43
2019-03-26T06:06:13.949Z,6.57
2019-03-26T06:08:45.539Z,6.10
2019-03-26T06:11:16.705Z,6.27
2019-03-26T06:13:48.667Z,6.10
2019-03-26T06:16:20.111Z,5.87
2019-03-26T06:18:51.605Z,5.77
2019-03-26T06:21:23.015Z,5.60
2019-03-26T06:23:54.040Z,5.47
2019-03-26T06:26:24.912Z,5.27
2019-03-26T06:28:56.616Z,5.30
2019-03-26T06:31:28.369Z,4.80
2019-03-26T06:33:59.801Z,4.80
2019-03-26T06:36:31.475Z,5.00
2019-03-26T06:39:02.848Z,5.07
2019-03-26T06:41:33.794Z,4.17
2019-03-26T06:44:05.317Z,3.80
2019-03-26T06:46:38.158Z,4.63
2019-03-26T06:49:10.471Z,5.43
2019-03-26T06:51:41.735Z,4.30
2019-03-26T06:54:13.167Z,3.73
2019-03-26T06:56:44.441Z,4.50
2019-03-26T06:59:15.798Z,4.00
2019-03-26T07:01:47.390Z,3.97
2019-03-26T07:04:19.897Z,3.67
2019-03-26T07:06:53.469Z,4.20
2019-03-26T07:09:24.465Z,3.70
2019-03-26T07:11:56.690Z,3.53
2019-03-26T07:14:30.062Z,3.40
2019-03-26T07:17:02.992Z,3.83
2019-03-26T07:19:35.259Z,4.00
2019-03-26T07:22:07.526Z,3.87
2019-03-26T07:24:39.180Z,3.63
2019-03-26T07:27:10.866Z,4.30
2019-03-26T07:29:42.214Z,4.27
2019-03-26T07:32:13.068Z,4.30
2019-03-26T07:34:44.245Z,4.40
2019-03-26T07:37:15.418Z,4.33
2019-03-26T07:39:46.399Z,3.67
2019-03-26T07:42:17.603Z,4.37
2019-03-26T07:44:48.535Z,3.60
2019-03-26T07:47:21.216Z,3.83
2019-03-26T07:49:53.073Z,3.63
2019-03-26T07:52:24.883Z,3.83
2019-03-26T07:54:55.654Z,3.70
2019-03-26T07:57:27.952Z,3.40
2019-03-26T07:59:59.784Z,3.17
2019-03-26T08:02:32.003Z,2.93
2019-03-26T08:05:03.220Z,3.43
2019-03-26T08:07:35.719Z,3.10
2019-03-26T08:10:06.909Z,3.10
2019-03-26T08:12:38.285Z,3.00
2019-03-26T08:15:09.890Z,2.87
2019-03-26T08:17:41.215Z,2.60
2019-03-26T08:20:12.846Z,2.70
2019-03-26T08:22:44.137Z,2.43
2019-03-26T08:25:15.072Z,2.77
2019-03-26T08:27:45.901Z,2.70
2019-03-26T08:30:16.843Z,2.20
2019-03-26T08:32:47.865Z,2.60
2019-03-26T08:35:19.335Z,2.70
2019-03-26T08:37:51.322Z,2.90
2019-03-26T08:40:23.466Z,3.20
2019-03-26T08:42:54.714Z,2.37
2019-03-26T08:45:25.812Z,2.27
2019-03-26T08:47:56.826Z,2.50
2019-03-26T08:50:29.064Z,2.40
2019-03-26T08:53:01.394Z,2.10
2019-03-26T08:55:33.994Z,2.60
2019-03-26T08:58:06.170Z,2.53
2019-03-26T09:00:37.414Z,2.20
2019-03-26T09:03:08.810Z,2.00
2019-03-26T09:05:40.030Z,2.33
2019-03-26T09:08:24.457Z,2.67
2019-03-26T09:10:51.809Z,2.53
2019-03-26T09:13:19.028Z,2.50
2019-03-26T09:15:52.055Z,2.87
2019-03-26T09:18:25.369Z,2.70
2019-03-26T09:20:56.720Z,2.20
2019-03-26T09:23:27.964Z,2.40
2019-03-26T09:25:59.215Z,2.33
2019-03-26T09:28:30.598Z,2.30
2019-03-26T09:31:02.826Z,2.27
2019-03-26T09:33:34.161Z,2.40
2019-03-26T09:36:05.171Z,3.30
2019-03-26T09:38:39.194Z,2.20
2019-03-26T09:41:10.376Z,2.37
2019-03-26T09:43:44.642Z,2.50
2019-03-26T09:46:16.093Z,2.47
2019-03-26T09:48:48.626Z,2.00
2019-03-26T09:51:22.563Z,2.33
2019-03-26T09:53:54.543Z,2.20
2019-03-26T09:56:30.683Z,2.30
2019-03-26T09:58:59.663Z,2.23
2019-03-26T10:01:30.903Z,2.00
2019-03-26T10:04:01.866Z,2.93
2019-03-26T10:06:36.051Z,2.00
2019-03-26T10:09:09.876Z,2.30
2019-03-26T10:11:41.811Z,2.13
2019-03-26T10:14:13.049Z,1.93
2019-03-26T10:16:44.321Z,2.27
2019-03-26T10:19:16.980Z,1.73
2019-03-26T10:21:49.255Z,2.67
2019-03-26T10:24:20.326Z,2.30
2019-03-26T10:26:51.478Z,2.30
2019-03-26T10:29:29.984Z,2.50
2019-03-26T10:31:56.522Z,2.23
2019-03-26T10:34:28.106Z,2.03
2019-03-26T10:37:00.094Z,1.90
2019-03-26T10:39:31.937Z,2.00
2019-03-26T10:42:07.005Z,1.60
2019-03-26T10:44:37.346Z,2.03
2019-03-26T10:47:08.218Z,1.90
2019-03-26T10:49:39.608Z,1.83
2019-03-26T10:52:11.047Z,2.07
2019-03-26T10:54:43.877Z,2.17
2019-03-26T10:57:16.582Z,2.03
2019-03-26T10:59:48.495Z,1.50
2019-03-26T11:02:19.758Z,2.07
2019-03-26T11:04:52.453Z,1.90
2019-03-26T11:07:23.355Z,1.83
2019-03-26T11:09:54.993Z,2.33
2019-03-26T11:12:25.882Z,1.70
2019-03-26T11:14:58.310Z,2.03
2019-03-26T11:17:29.658Z,2.00
2019-03-26T11:20:00.979Z,1.90
2019-03-26T11:22:33.013Z,1.70
2019-03-26T11:25:04.485Z,1.90
2019-03-26T11:27:35.820Z,2.30
2019-03-26T11:30:07.168Z,1.87
2019-03-26T11:32:38.084Z,1.93
2019-03-26T11:35:10.027Z,2.10
2019-03-26T11:37:42.111Z,2.50
2019-03-26T11:40:13.368Z,2.10
2019-03-26T11:42:46.189Z,2.13
2019-03-26T11:45:18.563Z,2.40
2019-03-26T11:47:51.578Z,1.93
2019-03-26T11:50:23.503Z,2.33
2019-03-26T11:52:54.731Z,2.20
2019-03-26T11:55:26.709Z,2.17
2019-03-26T11:57:57.652Z,2.00
2019-03-26T12:00:33.079Z,1.83
2019-03-26T12:03:04.953Z,2.20
2019-03-26T12:05:37.427Z,1.80
2019-03-26T12:08:09.751Z,2.13
2019-03-26T12:10:42.470Z,2.10
2019-03-26T12:13:13.493Z,2.37
2019-03-26T12:15:44.369Z,2.13
2019-03-26T12:18:15.715Z,2.33
2019-03-26T12:20:46.695Z,2.33
2019-03-26T12:23:20.216Z,2.63
2019-03-26T12:25:51.532Z,2.43
2019-03-26T12:28:22.667Z,1.90
2019-03-26T12:30:53.659Z,1.93
2019-03-26T12:33:24.622Z,1.70
2019-03-26T12:35:57.653Z,2.00
2019-03-26T12:38:29.006Z,1.80
2019-03-26T12:40:59.866Z,1.97
2019-03-26T12:43:31.150Z,2.07
2019-03-26T12:46:03.794Z,2.43
2019-03-26T12:48:34.988Z,2.37
2019-03-26T12:51:05.900Z,1.87
2019-03-26T12:53:37.579Z,2.27
2019-03-26T12:56:08.512Z,1.90
2019-03-26T12:58:41.202Z,2.40
2019-03-26T13:01:12.861Z,2.30
2019-03-26T13:03:44.811Z,2.30
2019-03-26T13:06:15.755Z,2.13
2019-03-26T13:08:47.922Z,2.03
2019-03-26T13:11:20.199Z,2.10
2019-03-26T13:13:53.432Z,2.23
2019-03-26T13:16:24.313Z,2.83
2019-03-26T13:18:55.329Z,2.50
2019-03-26T13:21:26.755Z,2.43
2019-03-26T13:23:59.661Z,2.67
2019-03-26T13:26:30.848Z,2.50
2019-03-26T13:29:01.745Z,2.67
2019-03-26T13:31:33.746Z,2.57
2019-03-26T13:34:06.505Z,2.90
2019-03-26T13:36:37.775Z,2.27
2019-03-26T13:39:10.702Z,2.73
2019-03-26T13:41:41.675Z,2.50
2019-03-26T13:44:14.766Z,2.53
2019-03-26T13:46:47.519Z,2.80
2019-03-26T13:49:19.659Z,2.40
2019-03-26T13:51:50.559Z,3.00
2019-03-26T13:54:21.849Z,2.57
2019-03-26T13:56:52.839Z,2.70
2019-03-26T13:59:24.006Z,2.57
2019-03-26T14:01:55.276Z,2.60
2019-03-26T14:04:26.190Z,2.80
2019-03-26T14:06:58.041Z,2.93
2019-03-26T14:09:29.707Z,2.90
2019-03-26T14:12:01.281Z,2.77
2019-03-26T14:14:33.505Z,3.03
2019-03-26T14:17:06.596Z,2.80
2019-03-26T14:19:39.848Z,2.47
2019-03-26T14:22:10.777Z,2.93
2019-03-26T14:24:41.607Z,2.67
2019-03-26T14:27:12.553Z,2.70
2019-03-26T14:29:44.105Z,2.87
2019-03-26T14:32:17.504Z,2.57
2019-03-26T14:34:51.912Z,2.73
2019-03-26T14:37:24.401Z,2.40
2019-03-26T14:39:55.825Z,2.60
2019-03-26T14:42:26.713Z,2.30
2019-03-26T14:44:58.358Z,2.90
2019-03-26T14:47:30.992Z,2.87
2019-03-26T14:50:02.376Z,2.60
2019-03-26T14:52:33.834Z,2.63
2019-03-26T14:55:05.501Z,3.07
2019-03-26T14:57:36.447Z,3.70
2019-03-26T15:00:10.329Z,2.97
2019-03-26T15:02:43.235Z,3.10
2019-03-26T15:05:14.735Z,3.20
2019-03-26T15:07:48.296Z,2.70
2019-03-26T15:10:23.214Z,2.60
2019-03-26T15:12:54.032Z,2.97
2019-03-26T15:15:27.631Z,2.70
2019-03-26T15:17:59.624Z,3.00
2019-03-26T15:20:30.563Z,2.70
2019-03-26T15:23:04.490Z,2.73
2019-03-26T15:25:36.300Z,2.30
2019-03-26T15:28:07.458Z,2.60
2019-03-26T15:30:38.478Z,2.63
2019-03-26T15:33:09.853Z,2.37
2019-03-26T15:35:41.134Z,2.60
2019-03-26T15:38:14.096Z,2.57
2019-03-26T15:40:45.543Z,2.50
2019-03-26T15:43:16.577Z,2.57
2019-03-26T15:45:47.526Z,3.10
2019-03-26T15:48:18.743Z,2.73
2019-03-26T15:50:50.126Z,2.37
2019-03-26T15:53:21.349Z,2.60
2019-03-26T15:55:52.265Z,2.63
2019-03-26T15:58:24.472Z,2.57
2019-03-26T16:00:56.753Z,2.97
2019-03-26T16:03:27.676Z,2.97
2019-03-26T16:05:59.052Z,2.63
2019-03-26T16:08:31.661Z,2.90
2019-03-26T16:11:02.773Z,2.83
2019-03-26T16:13:35.691Z,3.13
2019-03-26T16:16:06.676Z,2.90
2019-03-26T16:18:38.034Z,2.97
2019-03-26T16:21:09.034Z,2.70
2019-03-26T16:23:40.975Z,3.17
2019-03-26T16:26:14.041Z,2.70
2019-03-26T16:28:45.264Z,3.27
2019-03-26T16:31:16.281Z,3.30
2019-03-26T16:33:47.988Z,2.97
2019-03-26T16:36:20.669Z,3.17
2019-03-26T16:38:51.640Z,2.87
2019-03-26T16:41:25.506Z,3.00
2019-03-26T16:43:56.408Z,3.50
2019-03-26T16:46:27.681Z,2.93
2019-03-26T16:49:00.077Z,3.00
2019-03-26T16:51:32.510Z,2.57
2019-03-26T16:54:03.614Z,3.37
2019-03-26T16:56:36.247Z,2.70
2019-03-26T16:59:11.401Z,2.70
2019-03-26T17:01:42.302Z,3.07
2019-03-26T17:04:13.477Z,3.30
2019-03-26T17:06:44.967Z,3.43
2019-03-26T17:09:17.208Z,3.43
2019-03-26T17:12:02.143Z,3.43
2019-03-26T17:14:22.733Z,2.77
2019-03-26T17:16:54.673Z,4.03
2019-03-26T17:19:26.932Z,3.43
2019-03-26T17:21:59.149Z,3.73
2019-03-26T17:24:30.648Z,3.40
2019-03-26T17:27:02.764Z,3.40
2019-03-26T17:29:33.670Z,3.80
2019-03-26T17:32:05.205Z,3.07
2019-03-26T17:34:36.178Z,3.70
2019-03-26T17:37:07.423Z,3.43
2019-03-26T17:39:38.298Z,3.17
2019-03-26T17:42:17.183Z,3.30
2019-03-26T17:44:43.175Z,2.87
2019-03-26T17:47:14.411Z,3.23
2019-03-26T17:49:46.383Z,3.53
2019-03-26T17:52:18.023Z,3.17
2019-03-26T17:54:49.283Z,3.50
2019-03-26T17:57:20.534Z,3.13
2019-03-26T17:59:51.875Z,3.40
2019-03-26T18:02:23.138Z,3.30
2019-03-26T18:04:54.065Z,3.60
2019-03-26T18:07:27.990Z,3.50
2019-03-26T18:09:59.221Z,3.27
2019-03-26T18:12:31.446Z,3.53
2019-03-26T18:15:02.730Z,3.93
2019-03-26T18:17:35.188Z,3.17
2019-03-26T18:20:06.784Z,3.77
2019-03-26T18:22:37.776Z,3.53
2019-03-26T18:25:09.050Z,3.87
2019-03-26T18:27:41.551Z,4.20
2019-03-26T18:30:12.830Z,4.67
2019-03-26T18:32:45.934Z,4.17
2019-03-26T18:35:17.906Z,3.90
2019-03-26T18:37:50.298Z,4.10
2019-03-26T18:40:22.796Z,4.47
2019-03-26T18:42:53.726Z,4.23
2019-03-26T18:45:27.632Z,4.47
2019-03-26T18:48:00.336Z,4.97
2019-03-26T18:50:31.228Z,5.10
2019-03-26T18:53:03.662Z,5.07
2019-03-26T18:55:34.548Z,4.60
2019-03-26T18:58:08.051Z,4.43
2019-03-26T19:00:40.038Z,4.63
2019-03-26T19:03:10.933Z,4.43
2019-03-26T19:05:41.936Z,4.57
2019-03-26T19:08:14.166Z,3.93
2019-03-26T19:10:45.088Z,3.87
2019-03-26T19:13:19.887Z,3.80
2019-03-26T19:15:48.833Z,3.50
2019-03-26T19:18:20.077Z,3.67
2019-03-26T19:21:01.347Z,3.40
2019-03-26T19:23:25.848Z,3.70
2019-03-26T19:25:57.356Z,3.43
2019-03-26T19:28:30.038Z,3.67
2019-03-26T19:31:02.382Z,3.73
2019-03-26T19:33:33.322Z,4.00
2019-03-26T19:36:05.616Z,3.70
2019-03-26T19:38:37.213Z,3.30
2019-03-26T19:41:08.126Z,3.70
2019-03-26T19:43:39.505Z,3.23
2019-03-26T19:46:10.911Z,3.80
2019-03-26T19:48:42.153Z,3.93
2019-03-26T19:51:13.997Z,4.43
2019-03-26T19:53:44.916Z,5.17
2019-03-26T19:56:16.158Z,3.70
2019-03-26T19:58:47.393Z,5.00
2019-03-26T20:01:19.169Z,4.37
2019-03-26T20:03:53.834Z,4.27
2019-03-26T20:06:25.382Z,5.70
2019-03-26T20:08:56.353Z,5.20
2019-03-26T20:11:28.416Z,5.80
2019-03-26T20:14:00.478Z,5.43
2019-03-26T20:16:41.623Z,4.40
2019-03-26T20:19:05.477Z,4.17
2019-03-26T20:21:38.945Z,4.73
2019-03-26T20:24:10.240Z,5.53
2019-03-26T20:26:41.503Z,4.60
2019-03-26T20:29:14.121Z,4.97
2019-03-26T20:31:47.529Z,5.00
2019-03-26T20:34:19.443Z,4.83
2019-03-26T20:36:52.080Z,5.60
2019-03-26T20:39:23.468Z,5.03
2019-03-26T20:41:56.350Z,4.63
2019-03-26T20:44:27.262Z,4.50
2019-03-26T20:46:58.187Z,4.30
2019-03-26T20:49:29.162Z,4.60
2019-03-26T20:52:00.218Z,5.77
2019-03-26T20:54:31.655Z,5.07
2019-03-26T20:57:02.878Z,4.70
2019-03-26T20:59:34.792Z,6.13
2019-03-26T21:02:07.303Z,5.10
2019-03-26T21:04:38.281Z,4.87
2019-03-26T21:07:09.532Z,4.57
2019-03-26T21:09:40.847Z,5.27
2019-03-26T21:12:11.705Z,5.33
2019-03-26T21:14:43.771Z,4.97
2019-03-26T21:17:15.617Z,5.37
2019-03-26T21:19:47.287Z,5.40
2019-03-26T21:22:18.432Z,5.93
2019-03-26T21:24:50.444Z,5.40
2019-03-26T21:27:21.730Z,5.50
2019-03-26T21:29:52.821Z,5.37
2019-03-26T21:32:23.746Z,5.93
2019-03-26T21:34:56.668Z,7.50
2019-03-26T21:37:29.423Z,5.07
2019-03-26T21:40:00.329Z,5.93
2019-03-26T21:42:31.201Z,6.80
2019-03-26T21:45:02.115Z,6.13
2019-03-26T21:47:33.100Z,5.60
2019-03-26T21:50:04.427Z,6.07
2019-03-26T21:52:36.892Z,5.20
2019-03-26T21:55:13.058Z,5.77
2019-03-26T21:57:42.504Z,5.50
2019-03-26T22:00:14.641Z,5.63
2019-03-26T22:02:45.570Z,5.03
2019-03-26T22:05:16.841Z,6.27
2019-03-26T22:07:48.436Z,5.90
2019-03-26T22:10:21.118Z,5.70
2019-03-26T22:12:52.084Z,5.77
2019-03-26T22:15:25.132Z,6.13
2019-03-26T22:17:55.979Z,5.63
2019-03-26T22:20:26.867Z,10.03
2019-03-26T22:22:59.119Z,8.43
2019-03-26T22:25:31.871Z,6.50
2019-03-26T22:28:04.240Z,6.60
2019-03-26T22:30:35.208Z,6.67
2019-03-26T22:33:07.815Z,6.03
2019-03-26T22:35:40.958Z,6.37
2019-03-26T22:38:12.305Z,6.17
2019-03-26T22:40:44.187Z,6.10
2019-03-26T22:43:15.515Z,6.43
2019-03-26T22:45:46.511Z,7.03
2019-03-26T22:48:17.805Z,7.13
2019-03-26T22:50:49.058Z,6.90
2019-03-26T22:53:20.248Z,7.30
2019-03-26T22:55:51.532Z,6.87
2019-03-26T22:58:24.524Z,6.57
2019-03-26T23:00:55.913Z,6.50
2019-03-26T23:03:29.342Z,6.60
2019-03-26T23:06:00.114Z,5.87
2019-03-26T23:08:31.464Z,5.57
2019-03-26T23:11:04.366Z,6.73
2019-03-26T23:13:35.345Z,7.00
2019-03-26T23:16:06.531Z,6.50
2019-03-26T23:18:38.684Z,6.83
2019-03-26T23:21:09.857Z,6.80
2019-03-26T23:23:40.808Z,8.40
2019-03-26T23:26:13.597Z,7.70
2019-03-26T23:28:45.049Z,6.90
2019-03-26T23:31:16.381Z,8.07
2019-03-26T23:33:47.750Z,7.13
2019-03-26T23:36:19.745Z,6.67
2019-03-26T23:38:51.113Z,6.47
2019-03-26T23:41:21.948Z,7.03
2019-03-26T23:43:54.010Z,7.50
2019-03-26T23:46:25.287Z,6.80
2019-03-26T23:48:56.964Z,7.23
2019-03-26T23:51:28.994Z,7.57
2019-03-26T23:54:00.278Z,7.00
2019-03-26T23:56:31.193Z,7.53
2019-03-26T23:59:03.512Z,7.63
